Time;durP1;ratioP1;P1;durP2;ratioP2;P2;SDS_P1;SDS_P2;PMS_P1;PMS_P2;Temp;Humidity;BMP_temperature;BMP_pressure;BME280_temperature;BME280_humidity;BME280_pressure;Samples;Min_cycle;Max_cycle;Signal;HPM_P1;HPM_P2
2022/11/14 04:02:16;;;;;;;1.17;1.17;;;3.70;93.80;;;;;;5426782;22;20485;-73
2022/11/14 04:04:43;;;;;;;1.10;1.10;;;3.60;94.60;;;;;;5075884;28;20485;-73
2022/11/14 04:07:09;;;;;;;1.13;1.13;;;3.70;95.00;;;;;;5075558;28;20442;-73
2022/11/14 04:09:36;;;;;;;1.00;1.00;;;3.80;94.60;;;;;;5075827;28;20496;-74
2022/11/14 04:12:03;;;;;;;1.10;1.10;;;3.90;94.30;;;;;;5075698;28;20492;-73
2022/11/14 04:14:30;;;;;;;1.10;1.10;;;4.00;93.80;;;;;;5074935;28;20450;-74
2022/11/14 04:16:56;;;;;;;1.07;1.07;;;4.10;93.60;;;;;;5076599;28;20450;-74
2022/11/14 04:19:24;;;;;;;1.10;1.10;;;4.30;93.30;;;;;;5075583;28;20454;-74
2022/11/14 04:21:51;;;;;;;1.33;1.33;;;4.40;92.90;;;;;;5075513;28;20475;-73
2022/11/14 04:24:18;;;;;;;1.23;1.23;;;4.30;92.50;;;;;;5075477;28;20469;-74
2022/11/14 04:26:44;;;;;;;1.03;1.03;;;4.40;92.50;;;;;;5075512;28;20468;-74
2022/11/14 04:29:11;;;;;;;1.10;1.10;;;4.40;92.60;;;;;;5075457;28;20446;-74
2022/11/14 04:31:38;;;;;;;1.00;1.00;;;4.60;92.30;;;;;;5075377;28;20474;-74
2022/11/14 04:34:04;;;;;;;1.00;1.00;;;4.60;91.80;;;;;;5075369;28;20456;-74
2022/11/14 04:36:32;;;;;;;1.40;1.40;;;4.80;91.50;;;;;;5074991;28;20445;-73
2022/11/14 04:38:59;;;;;;;1.10;1.10;;;4.80;91.00;;;;;;5075259;28;20450;-74
2022/11/14 04:41:26;;;;;;;1.20;1.20;;;5.10;91.20;;;;;;5074869;28;20469;-74
2022/11/14 04:43:53;;;;;;;1.00;1.00;;;5.30;89.80;;;;;;5075089;28;20473;-74
2022/11/14 04:46:19;;;;;;;1.10;1.10;;;5.50;88.90;;;;;;5074804;28;20809;-73
2022/11/14 04:48:46;;;;;;;1.00;1.00;;;5.50;87.70;;;;;;5075061;28;20449;-73
2022/11/14 04:51:13;;;;;;;0.90;0.90;;;5.40;87.70;;;;;;5074604;28;20980;-74
2022/11/14 04:53:41;;;;;;;1.10;1.10;;;5.50;88.10;;;;;;5074673;28;20442;-74
2022/11/14 04:56:08;;;;;;;1.00;1.00;;;5.50;87.70;;;;;;5074910;28;20449;-74
2022/11/14 04:58:35;;;;;;;0.80;0.80;;;5.50;87.90;;;;;;5074838;28;20450;-71
2022/11/14 05:01:08;;;;;;;1.10;1.10;;;5.50;88.10;;;;;;5074588;28;20489;-72
2022/11/14 05:03:34;;;;;;;1.17;1.17;;;5.60;87.30;;;;;;5074742;28;20442;-72
2022/11/14 05:06:02;;;;;;;1.27;1.27;;;5.30;86.50;;;;;;5074670;28;20457;-71
2022/11/14 05:08:28;;;;;;;0.80;0.80;;;5.30;87.30;;;;;;5074651;28;20452;-72
2022/11/14 05:10:56;;;;;;;1.20;1.20;;;5.50;86.60;;;;;;5074560;28;20468;-72
2022/11/14 05:13:23;;;;;;;0.87;0.87;;;5.50;86.10;;;;;;5074253;28;20928;-71
2022/11/14 05:15:50;;;;;;;0.90;0.90;;;5.50;87.20;;;;;;5074460;28;20524;-72
2022/11/14 05:18:16;;;;;;;1.00;1.00;;;5.40;87.90;;;;;;5074096;28;20949;-71
2022/11/14 05:20:43;;;;;;;0.90;0.90;;;5.20;88.90;;;;;;5074024;28;20469;-71
2022/11/14 05:23:19;;;;;;;0.90;0.90;;;5.10;89.30;;;;;;5074026;28;20807;-71
2022/11/14 05:25:46;;;;;;;1.33;1.33;;;5.00;89.80;;;;;;5074089;28;20466;-72
2022/11/14 05:28:14;;;;;;;1.00;1.00;;;4.90;90.20;;;;;;5074316;28;20809;-71
2022/11/14 05:30:41;;;;;;;0.90;0.90;;;4.90;90.90;;;;;;5074057;28;20457;-72
2022/11/14 05:33:07;;;;;;;1.00;1.00;;;5.00;93.00;;;;;;5074127;28;20473;-72
2022/11/14 05:35:34;;;;;;;1.20;1.20;;;5.10;91.50;;;;;;5074046;28;20445;-72
2022/11/14 05:38:01;;;;;;;1.00;1.00;;;5.20;90.50;;;;;;5073738;28;20956;-72
2022/11/14 05:40:28;;;;;;;0.90;0.90;;;5.20;89.50;;;;;;5073943;28;20534;-72
2022/11/14 05:42:55;;;;;;;0.90;0.90;;;5.20;89.20;;;;;;5073625;28;20951;-72
2022/11/14 05:45:23;;;;;;;0.80;0.80;;;5.30;89.20;;;;;;5073901;28;20509;-72
2022/11/14 05:47:52;;;;;;;0.90;0.90;;;5.40;88.40;;;;;;5073877;28;20442;-72
2022/11/14 05:50:19;;;;;;;1.00;1.00;;;5.20;88.80;;;;;;5073826;28;20453;-72
2022/11/14 05:52:46;;;;;;;0.90;0.90;;;5.20;89.10;;;;;;5073876;28;20470;-72
2022/11/14 05:55:12;;;;;;;0.90;0.90;;;5.10;90.10;;;;;;5073812;28;20449;-73
2022/11/14 05:57:39;;;;;;;1.10;1.10;;;5.30;90.00;;;;;;5073780;28;20441;-73
2022/11/14 06:00:08;;;;;;;1.00;1.00;;;5.30;90.20;;;;;;5073749;28;20441;-73
2022/11/14 06:02:36;;;;;;;0.80;0.80;;;5.30;90.20;;;;;;5073339;28;20481;-73
2022/11/14 06:05:02;;;;;;;0.80;0.80;;;5.40;90.30;;;;;;5073272;28;20485;-73
2022/11/14 06:07:29;;;;;;;1.13;1.13;;;5.40;90.40;;;;;;5073633;28;20442;-73
2022/11/14 06:09:56;;;;;;;0.87;0.87;;;5.60;90.50;;;;;;5073634;28;20468;-73
2022/11/14 06:12:22;;;;;;;0.90;0.90;;;5.70;89.60;;;;;;5073507;28;20469;-73
2022/11/14 06:14:49;;;;;;;0.80;0.80;;;5.80;88.80;;;;;;5073502;28;20445;-72
2022/11/14 06:17:16;;;;;;;0.90;0.90;;;5.70;88.30;;;;;;5073205;28;20446;-73
2022/11/14 06:19:44;;;;;;;0.90;0.90;;;5.70;88.30;;;;;;5073452;28;20453;-72
2022/11/14 06:22:11;;;;;;;1.00;1.00;;;5.70;88.70;;;;;;5073379;28;20468;-74
2022/11/14 06:24:37;;;;;;;1.10;1.10;;;5.50;88.80;;;;;;5073360;28;20478;-74
2022/11/14 06:27:04;;;;;;;1.10;1.10;;;5.60;89.40;;;;;;5073454;28;20873;-74
2022/11/14 06:29:31;;;;;;;0.90;0.90;;;5.50;89.30;;;;;;5073380;28;20442;-74
2022/11/14 06:31:57;;;;;;;0.97;0.97;;;5.40;89.50;;;;;;5072961;28;20469;-73
2022/11/14 06:34:24;;;;;;;0.83;0.83;;;5.50;89.90;;;;;;5073362;28;20444;-74
2022/11/14 06:36:52;;;;;;;1.27;1.27;;;5.40;90.00;;;;;;5073135;28;20971;-74
2022/11/14 06:39:19;;;;;;;1.03;1.03;;;5.60;90.00;;;;;;5078742;28;20449;-72
2022/11/14 06:41:45;;;;;;;0.80;0.80;;;5.70;90.50;;;;;;5079846;28;20857;-73
2022/11/14 06:44:13;;;;;;;1.00;1.00;;;5.90;90.50;;;;;;5079559;28;20445;-74
2022/11/14 06:46:40;;;;;;;0.90;0.90;;;6.00;89.50;;;;;;5079921;28;20453;-74
2022/11/14 06:49:07;;;;;;;0.90;0.90;;;6.10;88.30;;;;;;5079850;28;20449;-73
2022/11/14 06:51:33;;;;;;;1.07;1.00;;;6.30;87.80;;;;;;5079802;28;20461;-74
2022/11/14 06:54:02;;;;;;;1.00;1.00;;;6.50;87.40;;;;;;5079854;28;20452;-74
2022/11/14 06:56:28;;;;;;;0.73;0.73;;;7.00;88.50;;;;;;5079730;28;20442;-74
2022/11/14 06:58:55;;;;;;;0.77;0.77;;;7.80;86.10;;;;;;5079722;28;20448;-72
2022/11/14 07:01:24;;;;;;;0.80;0.80;;;8.10;82.60;;;;;;5079497;28;20859;-73
2022/11/14 07:03:51;;;;;;;0.80;0.80;;;8.50;81.10;;;;;;5079677;28;20499;-74
2022/11/14 07:06:20;;;;;;;1.00;1.00;;;8.70;79.50;;;;;;5079477;28;20477;-72
2022/11/14 07:08:47;;;;;;;0.80;0.80;;;8.60;78.80;;;;;;5079584;28;20485;-72
2022/11/14 07:11:21;;;;;;;0.97;0.97;;;8.40;79.90;;;;;;5079590;28;20485;-71
2022/11/14 07:13:48;;;;;;;0.93;0.77;;;8.30;80.10;;;;;;5079638;28;20437;-72
2022/11/14 07:16:15;;;;;;;0.80;0.80;;;8.30;80.40;;;;;;5079545;28;20448;-72
2022/11/14 07:18:41;;;;;;;0.80;0.80;;;7.90;82.10;;;;;;5079600;28;20441;-71
2022/11/14 07:21:08;;;;;;;0.87;0.87;;;7.80;82.50;;;;;;5079422;28;20466;-72
2022/11/14 07:23:35;;;;;;;0.90;0.90;;;7.80;83.00;;;;;;5079548;28;20441;-72
2022/11/14 07:26:03;;;;;;;0.90;0.90;;;7.60;83.90;;;;;;5079505;28;20485;-72
2022/11/14 07:28:31;;;;;;;1.00;1.00;;;7.60;84.10;;;;;;5079519;28;20449;-72
2022/11/14 07:30:58;;;;;;;0.80;0.80;;;7.60;84.10;;;;;;5079366;28;20473;-71
2022/11/14 07:33:24;;;;;;;1.00;1.00;;;7.50;84.40;;;;;;5079447;28;20445;-71
2022/11/14 07:35:51;;;;;;;0.83;0.83;;;7.50;84.60;;;;;;5079158;28;20441;-71
2022/11/14 07:38:18;;;;;;;0.90;0.90;;;7.30;85.30;;;;;;5079372;28;20445;-72
2022/11/14 07:40:53;;;;;;;0.90;0.90;;;7.10;86.50;;;;;;5079355;28;20468;-71
2022/11/14 07:43:19;;;;;;;1.10;1.10;;;7.00;87.30;;;;;;5079387;28;20436;-73
2022/11/14 07:45:48;;;;;;;0.90;0.90;;;7.00;87.80;;;;;;5079291;28;20485;-74
2022/11/14 07:48:15;;;;;;;0.80;0.80;;;7.00;88.40;;;;;;5079089;28;20445;-74
2022/11/14 07:50:42;;;;;;;0.90;0.90;;;7.00;88.70;;;;;;5076617;28;20449;-74
2022/11/14 07:53:08;;;;;;;0.90;0.90;;;7.10;88.60;;;;;;5076113;28;20446;-71
2022/11/14 07:55:36;;;;;;;1.00;1.00;;;7.20;87.90;;;;;;5076080;28;20444;-73
2022/11/14 07:58:02;;;;;;;0.93;0.93;;;7.10;88.10;;;;;;5076006;28;20449;-73
2022/11/14 08:00:29;;;;;;;1.10;1.10;;;7.10;88.30;;;;;;5075884;28;20446;-72
2022/11/14 08:02:57;;;;;;;1.10;1.10;;;7.10;88.80;;;;;;5075600;28;20461;-73
2022/11/14 08:05:24;;;;;;;0.90;0.90;;;7.10;88.90;;;;;;5075746;28;20485;-73
2022/11/14 08:07:51;;;;;;;0.80;0.80;;;7.10;89.10;;;;;;5075788;28;20449;-73
2022/11/14 08:10:18;;;;;;;0.70;0.70;;;7.20;89.60;;;;;;5075797;28;20457;-73
2022/11/14 08:12:46;;;;;;;0.90;0.90;;;7.30;89.40;;;;;;5075634;28;20466;-73
2022/11/14 08:15:14;;;;;;;0.90;0.90;;;7.40;90.10;;;;;;5075696;28;20464;-74
2022/11/14 08:17:40;;;;;;;0.90;0.90;;;7.50;90.30;;;;;;5075616;28;20449;-73
2022/11/14 08:20:10;;;;;;;0.70;0.70;;;7.50;90.80;;;;;;5076506;28;20818;-74
2022/11/14 08:22:36;;;;;;;0.63;0.63;;;7.50;91.40;;;;;;5075891;28;20470;-73
2022/11/14 08:25:04;;;;;;;0.73;0.73;;;7.50;91.90;;;;;;5075993;28;20473;-73
2022/11/14 08:27:30;;;;;;;0.80;0.80;;;7.50;92.60;;;;;;5076491;28;20819;-72
2022/11/14 08:29:57;;;;;;;0.70;0.70;;;7.50;93.00;;;;;;5076324;28;20445;-73
2022/11/14 08:32:24;;;;;;;0.80;0.80;;;7.40;93.40;;;;;;5075458;28;20469;-73
2022/11/14 08:34:51;;;;;;;0.60;0.60;;;7.50;93.60;;;;;;5075005;28;20929;-73
2022/11/14 08:37:19;;;;;;;0.90;0.90;;;7.50;94.10;;;;;;5074990;28;20453;-73
2022/11/14 08:39:45;;;;;;;0.70;0.70;;;7.60;94.30;;;;;;5074926;28;20817;-72
2022/11/14 08:42:12;;;;;;;0.80;0.80;;;7.60;94.70;;;;;;5075135;28;20492;-72
2022/11/14 08:44:39;;;;;;;0.70;0.70;;;7.60;94.90;;;;;;5075084;28;20515;-72
2022/11/14 08:47:06;;;;;;;0.70;0.70;;;7.50;95.60;;;;;;5075301;28;20449;-72
2022/11/14 08:49:32;;;;;;;0.67;0.67;;;7.70;95.80;;;;;;5075206;28;20452;-73
2022/11/14 08:51:59;;;;;;;0.73;0.73;;;7.90;95.70;;;;;;5074626;28;21000;-72
2022/11/14 08:54:27;;;;;;;0.73;0.73;;;8.00;95.60;;;;;;5074987;28;20856;-70
2022/11/14 08:56:54;;;;;;;0.70;0.70;;;8.20;94.60;;;;;;5074974;28;20445;-72
2022/11/14 08:59:20;;;;;;;0.60;0.60;;;8.30;94.00;;;;;;5075081;28;20480;-72
2022/11/14 09:01:47;;;;;;;0.60;0.60;;;8.30;94.40;;;;;;5074759;28;20482;-72
2022/11/14 09:04:14;;;;;;;0.60;0.60;;;8.20;94.90;;;;;;5074759;28;20477;-72
2022/11/14 09:06:41;;;;;;;0.60;0.60;;;8.20;95.30;;;;;;5074649;28;20643;-72
2022/11/14 09:09:08;;;;;;;0.60;0.60;;;8.20;95.50;;;;;;5074801;28;20446;-72
2022/11/14 09:11:36;;;;;;;0.60;0.60;;;8.30;95.80;;;;;;5074614;28;20465;-72
2022/11/14 09:14:03;;;;;;;0.60;0.60;;;8.30;95.80;;;;;;5074617;28;20445;-72
2022/11/14 09:16:30;;;;;;;0.70;0.70;;;8.40;95.80;;;;;;5074437;28;20468;-72
2022/11/14 09:18:56;;;;;;;0.70;0.70;;;8.30;95.80;;;;;;5074417;28;20450;-72
2022/11/14 09:21:23;;;;;;;0.67;0.67;;;8.40;95.80;;;;;;5074332;28;20809;-72
2022/11/14 09:23:50;;;;;;;0.60;0.60;;;8.50;95.80;;;;;;5074233;28;20454;-72
2022/11/14 09:26:18;;;;;;;0.50;0.50;;;8.50;95.80;;;;;;5074243;28;20484;-72
2022/11/14 09:28:46;;;;;;;0.60;0.60;;;8.60;95.50;;;;;;5074171;28;20892;-72
2022/11/14 09:31:13;;;;;;;0.60;0.60;;;8.70;95.30;;;;;;5074077;28;20465;-72
2022/11/14 09:33:40;;;;;;;0.50;0.50;;;8.80;95.20;;;;;;5074051;28;20456;-72
2022/11/14 09:36:10;;;;;;;0.60;0.60;;;8.90;94.70;;;;;;5074110;28;20442;-75
2022/11/14 09:38:37;;;;;;;0.60;0.60;;;9.10;94.70;;;;;;5074042;28;20456;-73
2022/11/14 09:41:17;;;;;;;0.60;0.60;;;9.20;93.80;;;;;;5074002;28;20469;-75
2022/11/14 09:44:13;;;;;;;0.60;0.60;;;9.30;93.50;;;;;;5073999;28;20472;-74
2022/11/14 09:46:43;;;;;;;0.60;0.60;;;9.50;93.60;;;;;;5074345;28;20461;-74
2022/11/14 09:49:20;;;;;;;0.70;0.60;;;9.60;92.60;;;;;;5074041;28;20485;-74
2022/11/14 09:51:53;;;;;;;0.70;0.60;;;9.60;92.80;;;;;;5074060;28;20470;-75
2022/11/14 09:54:22;;;;;;;0.60;0.60;;;9.90;92.40;;;;;;5074024;28;20430;-74
2022/11/14 09:56:49;;;;;;;0.60;0.60;;;9.80;91.80;;;;;;5073959;28;20453;-75
2022/11/14 09:59:17;;;;;;;0.60;0.60;;;9.80;92.00;;;;;;5074083;28;20453;-74
2022/11/14 10:01:56;;;;;;;0.60;0.60;;;9.80;92.00;;;;;;5073676;28;20489;-74
2022/11/14 10:04:33;;;;;;;0.57;0.57;;;9.70;92.40;;;;;;5074176;28;20430;-74
2022/11/14 10:07:09;;;;;;;0.70;0.63;;;9.70;92.80;;;;;;5074088;28;20829;-74
2022/11/14 10:09:49;;;;;;;0.60;0.60;;;9.90;93.20;;;;;;5073919;28;20430;-73
2022/11/14 10:12:23;;;;;;;0.50;0.50;;;9.90;92.10;;;;;;5073279;28;20469;-74
2022/11/14 10:15:12;;;;;;;0.50;0.50;;;10.10;92.10;;;;;;5073296;28;20441;-74
2022/11/14 10:18:06;;;;;;;0.60;0.57;;;10.20;91.50;;;;;;5075580;28;20434;-73
2022/11/14 10:20:39;;;;;;;0.60;0.60;;;10.20;91.30;;;;;;5071215;28;20963;-74
2022/11/14 10:23:18;;;;;;;0.70;0.60;;;10.20;91.20;;;;;;5073457;28;20430;-74
2022/11/14 10:25:54;;;;;;;0.60;0.60;;;10.10;91.40;;;;;;5073277;28;20470;-73
2022/11/14 10:28:34;;;;;;;0.60;0.60;;;10.10;91.40;;;;;;5073444;28;20438;-73
2022/11/14 10:31:09;;;;;;;0.50;0.50;;;10.10;91.40;;;;;;5072936;28;20972;-73
2022/11/14 10:33:46;;;;;;;0.60;0.60;;;10.30;92.70;;;;;;5073033;28;20811;-72
2022/11/14 10:36:21;;;;;;;0.63;0.63;;;10.40;91.50;;;;;;5073552;28;20511;-73
2022/11/14 10:38:54;;;;;;;0.60;0.60;;;10.40;91.30;;;;;;5073238;28;20437;-73
2022/11/14 10:41:24;;;;;;;0.53;0.53;;;10.40;90.60;;;;;;5073200;28;20473;-73
2022/11/14 10:43:52;;;;;;;0.60;0.60;;;10.40;90.90;;;;;;5073233;28;20442;-72
2022/11/14 10:46:25;;;;;;;0.53;0.53;;;10.40;91.10;;;;;;5073236;28;21149;-73
2022/11/14 10:48:53;;;;;;;0.50;0.50;;;10.60;91.60;;;;;;5073233;28;20441;-73
2022/11/14 10:51:24;;;;;;;0.50;0.50;;;10.90;90.40;;;;;;5073036;28;20477;-74
2022/11/14 10:53:55;;;;;;;0.60;0.60;;;11.00;90.40;;;;;;5072859;28;20931;-74
2022/11/14 10:56:22;;;;;;;0.50;0.50;;;11.10;90.40;;;;;;5073099;28;20418;-74
2022/11/14 10:58:49;;;;;;;0.60;0.60;;;11.10;89.30;;;;;;5073051;28;20450;-73
2022/11/14 11:01:39;;;;;;;0.50;0.50;;;11.20;89.30;;;;;;5072757;28;20481;-73
2022/11/14 11:04:21;;;;;;;0.60;0.60;;;11.20;88.50;;;;;;5073025;28;20434;-74
2022/11/14 11:06:48;;;;;;;0.60;0.60;;;11.20;89.20;;;;;;5072595;28;21054;-73
2022/11/14 11:12:03;;;;;;;0.50;0.50;;;11.20;89.70;;;;;;5073295;28;20507;-74
2022/11/14 11:14:30;;;;;;;0.50;0.50;;;11.40;89.00;;;;;;5072909;28;20450;-73
2022/11/14 11:17:19;;;;;;;0.60;0.60;;;11.40;88.40;;;;;;5072917;28;20438;-73
2022/11/14 11:19:47;;;;;;;0.60;0.60;;;11.30;89.70;;;;;;5073007;28;20442;-73
2022/11/14 11:22:36;;;;;;;0.57;0.57;;;11.20;89.40;;;;;;5073109;28;20560;-74
2022/11/14 11:25:04;;;;;;;0.60;0.60;;;11.10;90.30;;;;;;5070141;28;20462;-74
2022/11/14 11:27:30;;;;;;;0.50;0.50;;;11.10;90.80;;;;;;5076153;28;20488;-73
2022/11/14 11:30:17;;;;;;;0.60;0.60;;;11.30;90.10;;;;;;5076527;28;20476;-75
2022/11/14 11:32:45;;;;;;;0.50;0.50;;;11.30;90.10;;;;;;5076411;28;20468;-74
2022/11/14 11:35:14;;;;;;;0.60;0.50;;;11.40;89.40;;;;;;5076444;28;20452;-72
2022/11/14 11:37:45;;;;;;;0.60;0.60;;;11.20;88.90;;;;;;5076387;28;20476;-72
2022/11/14 11:40:19;;;;;;;0.50;0.50;;;11.30;89.70;;;;;;5076593;28;20433;-72
2022/11/14 11:42:51;;;;;;;0.60;0.60;;;11.10;89.00;;;;;;5076198;28;20465;-72
2022/11/14 11:45:19;;;;;;;0.60;0.60;;;11.10;89.60;;;;;;5076288;28;20839;-74
2022/11/14 11:47:52;;;;;;;0.70;0.70;;;11.10;89.40;;;;;;5076066;28;20481;-73
2022/11/14 11:50:20;;;;;;;0.60;0.60;;;11.20;89.40;;;;;;5076198;28;20818;-72
2022/11/14 11:52:54;;;;;;;0.60;0.60;;;11.20;89.20;;;;;;5075996;28;20466;-73
2022/11/14 11:55:25;;;;;;;0.70;0.67;;;11.10;89.50;;;;;;5076037;28;20422;-73
2022/11/14 11:58:01;;;;;;;0.60;0.60;;;11.20;89.40;;;;;;5076043;28;20426;-73
2022/11/14 12:00:28;;;;;;;0.60;0.60;;;11.10;89.00;;;;;;5076831;28;20836;-71
2022/11/14 12:02:57;;;;;;;0.57;0.57;;;11.10;89.30;;;;;;5075653;28;20458;-72
2022/11/14 12:05:31;;;;;;;0.50;0.50;;;11.10;89.50;;;;;;5075562;28;20819;-73
2022/11/14 12:08:03;;;;;;;0.60;0.50;;;11.20;88.90;;;;;;5076066;28;20418;-73
2022/11/14 12:10:32;;;;;;;0.50;0.50;;;11.30;88.10;;;;;;5075860;28;20491;-72
2022/11/14 12:13:42;;;;;;;0.50;0.50;;;11.30;88.00;;;;;;5075762;28;20430;-73
2022/11/14 12:16:28;;;;;;;0.50;0.50;;;11.40;88.50;;;;;;5075828;28;20438;-70
2022/11/14 12:19:15;;;;;;;0.50;0.50;;;11.40;87.80;;;;;;5075814;28;20433;-71
2022/11/14 12:22:02;;;;;;;0.50;0.50;;;11.40;88.00;;;;;;5075266;28;20473;-73
2022/11/14 12:24:50;;;;;;;0.57;0.57;;;11.50;88.00;;;;;;5075598;28;20434;-71
2022/11/14 12:27:31;;;;;;;0.50;0.50;;;11.60;87.40;;;;;;5075451;28;20473;-72
2022/11/14 12:30:09;;;;;;;0.60;0.50;;;12.10;87.90;;;;;;5075485;28;20430;-71
2022/11/14 12:32:41;;;;;;;0.50;0.50;;;14.00;82.70;;;;;;5075024;28;20837;-72
2022/11/14 12:35:17;;;;;;;1.03;0.50;;;16.50;72.80;;;;;;5075257;28;20433;-73
2022/11/14 12:37:47;;;;;;;0.60;0.60;;;18.80;68.40;;;;;;5074778;28;20437;-73
2022/11/14 12:40:24;;;;;;;0.60;0.60;;;21.10;60.30;;;;;;5075003;28;20935;-72
2022/11/14 12:42:52;;;;;;;0.60;0.53;;;23.10;55.20;;;;;;5075288;28;20469;-73
2022/11/14 12:45:54;;;;;;;0.50;0.50;;;23.90;53.80;;;;;;5075154;28;20441;-73
2022/11/14 12:48:23;;;;;;;0.60;0.60;;;24.00;52.40;;;;;;5074747;28;20442;-73
2022/11/14 12:50:52;;;;;;;0.70;0.50;;;24.10;52.50;;;;;;5074935;28;20465;-73
2022/11/14 12:53:43;;;;;;;0.60;0.60;;;24.20;51.50;;;;;;5074967;28;20441;-73
2022/11/14 12:56:26;;;;;;;0.50;0.50;;;23.50;53.30;;;;;;5059920;28;20480;-74
2022/11/14 12:59:15;;;;;;;0.50;0.50;;;24.20;51.30;;;;;;5074861;28;20450;-74
2022/11/14 13:01:55;;;;;;;0.60;0.60;;;24.80;50.90;;;;;;5074982;28;20488;-74
2022/11/14 13:04:34;;;;;;;0.60;0.60;;;25.70;49.10;;;;;;5074904;28;20976;-74
2022/11/14 13:07:19;;;;;;;0.60;0.60;;;26.20;46.90;;;;;;5074758;28;20470;-73
2022/11/14 13:10:02;;;;;;;0.60;0.60;;;25.30;48.30;;;;;;5075095;28;20430;-74
2022/11/14 13:23:56;;;;;;;0.50;0.50;;;21.40;54.50;;;;;;5085267;28;20440;-74
2022/11/14 13:26:43;;;;;;;0.50;0.50;;;20.80;56.60;;;;;;5084036;28;20854;-75
2022/11/14 13:29:58;;;;;;;0.50;0.50;;;19.70;58.60;;;;;;5084579;28;20905;-74
2022/11/14 13:33:02;;;;;;;0.60;0.60;;;20.20;59.10;;;;;;5085529;28;20567;-75
2022/11/14 13:35:54;;;;;;;0.50;0.50;;;20.80;57.30;;;;;;5086500;28;20449;-75
2022/11/14 13:38:54;;;;;;;0.60;0.60;;;21.90;54.00;;;;;;5085614;28;20497;-74
2022/11/14 13:42:02;;;;;;;0.50;0.50;;;22.00;54.20;;;;;;5086347;28;20470;-76
2022/11/14 13:44:59;;;;;;;0.50;0.50;;;21.20;55.50;;;;;;5085470;28;20434;-75
2022/11/14 13:47:42;;;;;;;0.50;0.50;;;22.10;54.30;;;;;;5071080;28;20477;-75
2022/11/14 13:50:12;;;;;;;0.53;0.53;;;21.60;54.70;;;;;;5085784;28;20426;-75
2022/11/14 13:52:42;;;;;;;0.60;0.50;;;21.10;56.00;;;;;;5084395;28;20462;-75
2022/11/14 13:55:19;;;;;;;0.60;0.60;;;21.70;56.40;;;;;;5084177;28;20798;-75
2022/11/14 13:58:00;;;;;;;0.60;0.60;;;22.30;53.90;;;;;;5082635;28;20426;-75
2022/11/14 14:00:31;;;;;;;0.57;0.57;;;23.00;52.00;;;;;;5084316;28;20434;-74
2022/11/14 14:03:12;;;;;;;0.60;0.60;;;23.50;51.90;;;;;;5084523;28;20465;-75
2022/11/14 14:05:54;;;;;;;0.50;0.50;;;23.70;51.30;;;;;;5084072;28;20524;-75
2022/11/14 14:08:34;;;;;;;0.70;0.50;;;23.70;50.70;;;;;;5082027;28;20465;-75
2022/11/14 14:11:18;;;;;;;0.60;0.60;;;22.70;51.60;;;;;;5081856;28;20473;-75
2022/11/14 14:13:56;;;;;;;0.70;0.70;;;20.50;56.50;;;;;;5082396;28;20516;-75
2022/11/14 14:16:35;;;;;;;0.50;0.50;;;19.40;59.70;;;;;;5080805;28;20430;-74
2022/11/14 14:19:08;;;;;;;0.57;0.50;;;17.90;62.40;;;;;;5081944;28;21006;-74
2022/11/14 14:21:45;;;;;;;0.60;0.60;;;17.80;63.60;;;;;;5075067;28;20992;-75
2022/11/14 14:24:25;;;;;;;0.60;0.60;;;17.40;64.70;;;;;;5073470;28;20440;-74
2022/11/14 14:27:04;;;;;;;0.60;0.60;;;16.70;65.90;;;;;;5073389;28;20469;-73
